sensor_id;sensor_type;location;lat;lon;timestamp;pressure;altitude;pressure_sealevel;temperature;humidity
53041;BME280;39326;42.650;23.248;2023-05-10T00:00:27;92766.75;;;7.53;96.59
53041;BME280;39326;42.650;23.248;2023-05-10T00:02:53;92760.94;;;7.44;96.76
53041;BME280;39326;42.650;23.248;2023-05-10T00:05:19;92760.97;;;7.48;96.08
53041;BME280;39326;42.650;23.248;2023-05-10T00:07:45;92754.50;;;7.45;96.54
53041;BME280;39326;42.650;23.248;2023-05-10T00:10:11;92755.78;;;7.55;96.13
53041;BME280;39326;42.650;23.248;2023-05-10T00:12:37;92748.09;;;7.50;96.29
53041;BME280;39326;42.650;23.248;2023-05-10T00:15:03;92746.56;;;7.45;96.51
53041;BME280;39326;42.650;23.248;2023-05-10T00:17:29;92736.91;;;7.33;96.81
53041;BME280;39326;42.650;23.248;2023-05-10T00:19:55;92748.97;;;7.31;96.31
53041;BME280;39326;42.650;23.248;2023-05-10T00:22:21;92731.78;;;7.21;96.85
53041;BME280;39326;42.650;23.248;2023-05-10T00:24:48;92739.03;;;7.24;96.21
53041;BME280;39326;42.650;23.248;2023-05-10T00:27:14;92737.13;;;7.25;96.34
53041;BME280;39326;42.650;23.248;2023-05-10T00:29:40;92740.22;;;7.27;95.99
53041;BME280;39326;42.650;23.248;2023-05-10T00:32:06;92731.44;;;7.23;96.11
53041;BME280;39326;42.650;23.248;2023-05-10T00:34:33;92724.19;;;7.20;96.18
53041;BME280;39326;42.650;23.248;2023-05-10T00:36:59;92726.44;;;7.18;96.27
53041;BME280;39326;42.650;23.248;2023-05-10T00:39:25;92723.38;;;7.16;96.54
53041;BME280;39326;42.650;23.248;2023-05-10T00:41:52;92722.53;;;7.11;95.94
53041;BME280;39326;42.650;23.248;2023-05-10T00:44:17;92725.53;;;7.06;96.28
53041;BME280;39326;42.650;23.248;2023-05-10T00:46:44;92721.88;;;6.92;96.74
53041;BME280;39326;42.650;23.248;2023-05-10T00:49:11;92721.34;;;6.82;97.17
53041;BME280;39326;42.650;23.248;2023-05-10T00:51:37;92703.84;;;6.78;96.86
53041;BME280;39326;42.650;23.248;2023-05-10T00:54:03;92718.34;;;6.84;97.48
53041;BME280;39326;42.650;23.248;2023-05-10T00:56:29;92706.91;;;6.80;97.13
53041;BME280;39326;42.650;23.248;2023-05-10T00:58:55;92721.06;;;6.88;97.33
53041;BME280;39326;42.650;23.248;2023-05-10T01:01:22;92712.75;;;6.89;96.65
53041;BME280;39326;42.650;23.248;2023-05-10T01:03:48;92717.31;;;6.92;97.03
53041;BME280;39326;42.650;23.248;2023-05-10T01:06:15;92714.69;;;6.92;96.30
53041;BME280;39326;42.650;23.248;2023-05-10T01:08:41;92710.66;;;7.02;96.17
53041;BME280;39326;42.650;23.248;2023-05-10T01:11:07;92718.25;;;7.03;95.91
53041;BME280;39326;42.650;23.248;2023-05-10T01:13:36;92712.19;;;7.03;96.16
53041;BME280;39326;42.650;23.248;2023-05-10T01:16:03;92710.66;;;7.02;95.98
53041;BME280;39326;42.650;23.248;2023-05-10T01:18:30;92707.66;;;7.03;95.44
53041;BME280;39326;42.650;23.248;2023-05-10T01:26:23;92696.13;;;6.92;95.84
53041;BME280;39326;42.650;23.248;2023-05-10T01:29:08;92701.66;;;6.83;95.86
53041;BME280;39326;42.650;23.248;2023-05-10T01:35:21;92688.13;;;6.89;95.78
53041;BME280;39326;42.650;23.248;2023-05-10T01:37:45;92696.41;;;6.87;96.14
53041;BME280;39326;42.650;23.248;2023-05-10T01:43:02;92684.13;;;6.75;95.90
53041;BME280;39326;42.650;23.248;2023-05-10T01:45:33;92682.34;;;6.83;95.48
53041;BME280;39326;42.650;23.248;2023-05-10T01:48:06;92688.34;;;6.80;95.73
53041;BME280;39326;42.650;23.248;2023-05-10T01:50:36;92688.16;;;6.92;95.47
53041;BME280;39326;42.650;23.248;2023-05-10T01:53:06;92682.16;;;6.95;94.51
53041;BME280;39326;42.650;23.248;2023-05-10T01:55:35;92671.69;;;7.06;93.77
53041;BME280;39326;42.650;23.248;2023-05-10T01:58:08;92682.19;;;6.99;94.27
53041;BME280;39326;42.650;23.248;2023-05-10T02:00:35;92682.00;;;7.11;94.00
53041;BME280;39326;42.650;23.248;2023-05-10T02:03:06;92679.41;;;7.15;93.94
53041;BME280;39326;42.650;23.248;2023-05-10T02:05:34;92688.06;;;7.11;93.52
53041;BME280;39326;42.650;23.248;2023-05-10T02:08:01;92685.88;;;7.17;93.10
53041;BME280;39326;42.650;23.248;2023-05-10T02:10:30;92686.97;;;7.13;93.50
53041;BME280;39326;42.650;23.248;2023-05-10T02:12:58;92686.25;;;7.16;93.12
53041;BME280;39326;42.650;23.248;2023-05-10T02:15:24;92683.72;;;7.00;93.45
53041;BME280;39326;42.650;23.248;2023-05-10T02:17:52;92683.84;;;7.07;92.87
53041;BME280;39326;42.650;23.248;2023-05-10T02:20:20;92690.53;;;6.97;92.96
53041;BME280;39326;42.650;23.248;2023-05-10T02:22:51;92683.59;;;7.16;92.55
53041;BME280;39326;42.650;23.248;2023-05-10T02:25:19;92685.38;;;7.08;93.01
53041;BME280;39326;42.650;23.248;2023-05-10T02:27:46;92688.97;;;7.19;92.98
53041;BME280;39326;42.650;23.248;2023-05-10T02:30:13;92681.81;;;6.97;93.49
53041;BME280;39326;42.650;23.248;2023-05-10T02:32:39;92684.06;;;6.95;93.46
53041;BME280;39326;42.650;23.248;2023-05-10T02:35:07;92673.09;;;6.96;93.27
53041;BME280;39326;42.650;23.248;2023-05-10T02:37:35;92682.97;;;6.99;92.52
53041;BME280;39326;42.650;23.248;2023-05-10T02:40:02;92676.50;;;6.97;92.60
53041;BME280;39326;42.650;23.248;2023-05-10T02:42:32;92676.22;;;6.79;93.47
53041;BME280;39326;42.650;23.248;2023-05-10T02:45:02;92674.09;;;6.88;92.73
53041;BME280;39326;42.650;23.248;2023-05-10T02:47:29;92674.09;;;6.88;92.93
53041;BME280;39326;42.650;23.248;2023-05-10T02:49:55;92680.56;;;6.91;92.16
53041;BME280;39326;42.650;23.248;2023-05-10T02:52:24;92669.28;;;6.94;92.56
53041;BME280;39326;42.650;23.248;2023-05-10T02:54:55;92677.06;;;7.09;92.13
53041;BME280;39326;42.650;23.248;2023-05-10T02:57:26;92674.16;;;6.92;93.24
53041;BME280;39326;42.650;23.248;2023-05-10T02:59:52;92681.13;;;7.03;92.72
53041;BME280;39326;42.650;23.248;2023-05-10T03:02:19;92685.41;;;6.85;93.27
53041;BME280;39326;42.650;23.248;2023-05-10T03:04:45;92678.50;;;6.80;92.72
53041;BME280;39326;42.650;23.248;2023-05-10T03:07:11;92686.06;;;6.78;92.08
53041;BME280;39326;42.650;23.248;2023-05-10T03:09:37;92676.03;;;6.68;92.71
53041;BME280;39326;42.650;23.248;2023-05-10T03:12:11;92679.94;;;6.74;92.04
53041;BME280;39326;42.650;23.248;2023-05-10T03:15:00;92686.13;;;6.82;91.42
53041;BME280;39326;42.650;23.248;2023-05-10T03:20:10;92684.78;;;6.69;91.44
53041;BME280;39326;42.650;23.248;2023-05-10T03:22:38;92692.09;;;6.75;90.65
53041;BME280;39326;42.650;23.248;2023-05-10T03:25:08;92682.06;;;6.65;91.93
53041;BME280;39326;42.650;23.248;2023-05-10T03:27:41;92690.03;;;6.65;91.54
53041;BME280;39326;42.650;23.248;2023-05-10T03:30:10;92693.88;;;6.48;91.90
53041;BME280;39326;42.650;23.248;2023-05-10T03:32:37;92701.16;;;6.55;91.63
53041;BME280;39326;42.650;23.248;2023-05-10T03:35:10;92696.66;;;6.55;91.42
53041;BME280;39326;42.650;23.248;2023-05-10T03:37:35;92697.56;;;6.63;90.97
53041;BME280;39326;42.650;23.248;2023-05-10T03:40:02;92699.50;;;6.66;90.78
53041;BME280;39326;42.650;23.248;2023-05-10T03:42:29;92691.22;;;6.48;90.63
53041;BME280;39326;42.650;23.248;2023-05-10T03:44:55;92699.03;;;6.41;91.08
53041;BME280;39326;42.650;23.248;2023-05-10T03:47:21;92703.53;;;6.37;91.23
53041;BME280;39326;42.650;23.248;2023-05-10T03:49:47;92697.53;;;6.40;91.33
53041;BME280;39326;42.650;23.248;2023-05-10T03:52:13;92703.75;;;6.28;90.99
53041;BME280;39326;42.650;23.248;2023-05-10T03:54:39;92702.06;;;6.40;91.32
53041;BME280;39326;42.650;23.248;2023-05-10T03:57:05;92704.69;;;6.40;91.27
53041;BME280;39326;42.650;23.248;2023-05-10T03:59:31;92710.75;;;6.40;90.91
53041;BME280;39326;42.650;23.248;2023-05-10T04:01:57;92716.44;;;6.19;91.18
53041;BME280;39326;42.650;23.248;2023-05-10T04:04:23;92712.44;;;6.29;91.43
53041;BME280;39326;42.650;23.248;2023-05-10T04:06:49;92714.84;;;6.15;91.34
53041;BME280;39326;42.650;23.248;2023-05-10T04:09:15;92714.91;;;6.18;91.40
53041;BME280;39326;42.650;23.248;2023-05-10T04:11:42;92711.72;;;6.09;92.07
53041;BME280;39326;42.650;23.248;2023-05-10T04:14:08;92710.66;;;6.14;91.91
53041;BME280;39326;42.650;23.248;2023-05-10T04:16:34;92716.94;;;6.05;92.17
53041;BME280;39326;42.650;23.248;2023-05-10T04:19:01;92719.28;;;6.11;91.74
53041;BME280;39326;42.650;23.248;2023-05-10T04:21:27;92719.88;;;6.00;92.18
53041;BME280;39326;42.650;23.248;2023-05-10T04:23:53;92714.66;;;5.85;92.75
53041;BME280;39326;42.650;23.248;2023-05-10T04:26:19;92712.00;;;5.85;92.84
53041;BME280;39326;42.650;23.248;2023-05-10T04:28:46;92711.88;;;5.77;92.62
53041;BME280;39326;42.650;23.248;2023-05-10T04:31:13;92712.72;;;5.82;92.77
53041;BME280;39326;42.650;23.248;2023-05-10T04:33:39;92720.97;;;5.80;92.80
53041;BME280;39326;42.650;23.248;2023-05-10T04:36:05;92720.28;;;5.83;91.88
53041;BME280;39326;42.650;23.248;2023-05-10T04:38:31;92717.00;;;5.70;92.76
53041;BME280;39326;42.650;23.248;2023-05-10T04:41:10;92723.44;;;5.69;92.93
53041;BME280;39326;42.650;23.248;2023-05-10T04:43:36;92727.94;;;5.69;93.21
53041;BME280;39326;42.650;23.248;2023-05-10T04:46:03;92724.19;;;5.70;93.40
53041;BME280;39326;42.650;23.248;2023-05-10T04:48:29;92725.00;;;5.74;92.92
53041;BME280;39326;42.650;23.248;2023-05-10T04:50:55;92721.91;;;5.68;93.09
53041;BME280;39326;42.650;23.248;2023-05-10T04:53:20;92720.34;;;5.87;92.86
53041;BME280;39326;42.650;23.248;2023-05-10T04:55:46;92721.59;;;5.93;92.42
53041;BME280;39326;42.650;23.248;2023-05-10T04:58:13;92710.69;;;5.94;93.05
53041;BME280;39326;42.650;23.248;2023-05-10T05:00:39;92718.63;;;5.94;93.01
53041;BME280;39326;42.650;23.248;2023-05-10T05:03:05;92720.97;;;6.19;92.11
53041;BME280;39326;42.650;23.248;2023-05-10T05:05:31;92723.41;;;6.08;92.74
53041;BME280;39326;42.650;23.248;2023-05-10T05:07:57;92729.34;;;6.21;92.19
53041;BME280;39326;42.650;23.248;2023-05-10T05:10:23;92725.78;;;6.13;92.40
53041;BME280;39326;42.650;23.248;2023-05-10T05:12:49;92721.41;;;6.01;93.28
53041;BME280;39326;42.650;23.248;2023-05-10T05:15:15;92728.94;;;6.19;92.49
53041;BME280;39326;42.650;23.248;2023-05-10T05:17:42;92732.09;;;6.28;91.68
53041;BME280;39326;42.650;23.248;2023-05-10T05:20:09;92728.47;;;6.36;91.83
53041;BME280;39326;42.650;23.248;2023-05-10T05:22:36;92729.06;;;6.26;91.20
53041;BME280;39326;42.650;23.248;2023-05-10T05:25:02;92734.53;;;6.37;91.20
53041;BME280;39326;42.650;23.248;2023-05-10T05:27:29;92730.78;;;6.38;91.42
53041;BME280;39326;42.650;23.248;2023-05-10T05:29:55;92733.47;;;6.41;90.66
53041;BME280;39326;42.650;23.248;2023-05-10T05:32:22;92739.19;;;6.43;90.97
53041;BME280;39326;42.650;23.248;2023-05-10T05:34:47;92739.19;;;6.43;91.58
53041;BME280;39326;42.650;23.248;2023-05-10T05:37:19;92739.97;;;6.44;91.15
53041;BME280;39326;42.650;23.248;2023-05-10T05:39:45;92740.50;;;6.53;91.11
53041;BME280;39326;42.650;23.248;2023-05-10T05:42:12;92744.19;;;6.68;90.65
53041;BME280;39326;42.650;23.248;2023-05-10T05:44:38;92745.81;;;6.53;91.02
53041;BME280;39326;42.650;23.248;2023-05-10T05:47:05;92740.50;;;6.53;91.49
53041;BME280;39326;42.650;23.248;2023-05-10T05:49:31;92751.47;;;6.51;91.42
53041;BME280;39326;42.650;23.248;2023-05-10T05:52:01;92758.38;;;6.56;91.15
53041;BME280;39326;42.650;23.248;2023-05-10T05:54:27;92752.44;;;6.63;91.43
53041;BME280;39326;42.650;23.248;2023-05-10T05:56:56;92750.44;;;6.56;91.97
53041;BME280;39326;42.650;23.248;2023-05-10T05:59:23;92753.53;;;6.62;91.51
53041;BME280;39326;42.650;23.248;2023-05-10T06:01:50;92748.69;;;6.64;91.13
53041;BME280;39326;42.650;23.248;2023-05-10T06:04:16;92753.22;;;6.63;90.86
53041;BME280;39326;42.650;23.248;2023-05-10T06:06:42;92756.56;;;6.60;91.94
53041;BME280;39326;42.650;23.248;2023-05-10T06:09:09;92747.28;;;6.50;92.41
53041;BME280;39326;42.650;23.248;2023-05-10T06:11:36;92750.34;;;6.52;92.85
53041;BME280;39326;42.650;23.248;2023-05-10T06:14:03;92743.78;;;6.66;91.92
53041;BME280;39326;42.650;23.248;2023-05-10T06:16:30;92749.19;;;6.73;91.80
53041;BME280;39326;42.650;23.248;2023-05-10T06:18:57;92755.22;;;6.70;91.74
53041;BME280;39326;42.650;23.248;2023-05-10T06:21:23;92758.66;;;6.51;92.83
53041;BME280;39326;42.650;23.248;2023-05-10T06:23:49;92761.81;;;6.56;92.31
53041;BME280;39326;42.650;23.248;2023-05-10T06:26:15;92757.88;;;6.50;92.19
53041;BME280;39326;42.650;23.248;2023-05-10T06:28:41;92766.63;;;6.54;93.00
53041;BME280;39326;42.650;23.248;2023-05-10T06:31:07;92763.22;;;6.54;92.59
53041;BME280;39326;42.650;23.248;2023-05-10T06:33:33;92760.41;;;6.63;91.95
53041;BME280;39326;42.650;23.248;2023-05-10T06:35:59;92772.69;;;6.55;92.28
53041;BME280;39326;42.650;23.248;2023-05-10T06:38:25;92771.31;;;6.61;91.73
53041;BME280;39326;42.650;23.248;2023-05-10T06:40:51;92766.63;;;6.54;92.32
53041;BME280;39326;42.650;23.248;2023-05-10T06:43:18;92771.00;;;6.63;92.14
53041;BME280;39326;42.650;23.248;2023-05-10T06:45:45;92776.34;;;6.66;91.95
53041;BME280;39326;42.650;23.248;2023-05-10T06:48:11;92768.00;;;6.64;92.41
53041;BME280;39326;42.650;23.248;2023-05-10T06:50:38;92763.22;;;6.54;92.26
53041;BME280;39326;42.650;23.248;2023-05-10T06:53:03;92771.44;;;6.68;91.58
53041;BME280;39326;42.650;23.248;2023-05-10T06:55:29;92772.34;;;6.76;91.39
53041;BME280;39326;42.650;23.248;2023-05-10T06:57:55;92783.38;;;6.78;90.68
53041;BME280;39326;42.650;23.248;2023-05-10T07:00:21;92780.25;;;6.72;91.53
53041;BME280;39326;42.650;23.248;2023-05-10T07:02:47;92768.00;;;6.64;90.50
53041;BME280;39326;42.650;23.248;2023-05-10T07:05:13;92780.88;;;6.66;90.86
53041;BME280;39326;42.650;23.248;2023-05-10T07:07:40;92780.59;;;6.51;90.58
53041;BME280;39326;42.650;23.248;2023-05-10T07:10:06;92778.47;;;6.38;91.42
53041;BME280;39326;42.650;23.248;2023-05-10T07:12:34;92780.03;;;6.42;90.90
53041;BME280;39326;42.650;23.248;2023-05-10T07:15:00;92778.34;;;6.53;91.03
53041;BME280;39326;42.650;23.248;2023-05-10T07:17:26;92787.66;;;6.63;90.73
53041;BME280;39326;42.650;23.248;2023-05-10T07:19:52;92787.31;;;6.65;90.45
53041;BME280;39326;42.650;23.248;2023-05-10T07:22:18;92796.28;;;6.60;90.92
53041;BME280;39326;42.650;23.248;2023-05-10T07:24:44;92787.78;;;6.51;91.19
53041;BME280;39326;42.650;23.248;2023-05-10T07:27:10;92787.44;;;6.52;90.79
53041;BME280;39326;42.650;23.248;2023-05-10T07:29:36;92789.06;;;6.57;90.82
53041;BME280;39326;42.650;23.248;2023-05-10T07:32:02;92795.44;;;6.75;90.29
53041;BME280;39326;42.650;23.248;2023-05-10T07:34:29;92794.69;;;6.75;90.58
53041;BME280;39326;42.650;23.248;2023-05-10T07:36:57;92803.41;;;6.75;91.54
53041;BME280;39326;42.650;23.248;2023-05-10T07:39:24;92797.13;;;6.64;91.08
53041;BME280;39326;42.650;23.248;2023-05-10T07:41:50;92805.00;;;6.61;90.64
53041;BME280;39326;42.650;23.248;2023-05-10T07:44:16;92798.91;;;6.79;90.75
53041;BME280;39326;42.650;23.248;2023-05-10T07:46:44;92805.53;;;6.89;89.97
53041;BME280;39326;42.650;23.248;2023-05-10T07:49:11;92804.13;;;6.95;90.61
53041;BME280;39326;42.650;23.248;2023-05-10T07:51:36;92802.22;;;6.96;90.54
53041;BME280;39326;42.650;23.248;2023-05-10T07:54:02;92801.41;;;6.92;91.26
53041;BME280;39326;42.650;23.248;2023-05-10T07:56:30;92806.88;;;7.02;91.13
53041;BME280;39326;42.650;23.248;2023-05-10T07:58:58;92809.25;;;7.07;90.79
53041;BME280;39326;42.650;23.248;2023-05-10T08:01:24;92799.09;;;6.90;90.22
53041;BME280;39326;42.650;23.248;2023-05-10T08:03:50;92810.19;;;6.96;90.13
53041;BME280;39326;42.650;23.248;2023-05-10T08:06:20;92812.56;;;7.01;89.62
53041;BME280;39326;42.650;23.248;2023-05-10T08:08:46;92813.25;;;6.98;89.47
53041;BME280;39326;42.650;23.248;2023-05-10T08:11:17;92815.84;;;6.94;88.61
53041;BME280;39326;42.650;23.248;2023-05-10T08:13:44;92810.28;;;6.80;89.84
53041;BME280;39326;42.650;23.248;2023-05-10T08:16:10;92815.09;;;6.94;90.05
53041;BME280;39326;42.650;23.248;2023-05-10T08:18:37;92810.59;;;6.98;90.32
53041;BME280;39326;42.650;23.248;2023-05-10T08:21:03;92801.03;;;7.16;89.23
53041;BME280;39326;42.650;23.248;2023-05-10T08:23:29;92810.16;;;7.19;90.94
53041;BME280;39326;42.650;23.248;2023-05-10T08:25:55;92811.25;;;7.14;90.49
53041;BME280;39326;42.650;23.248;2023-05-10T08:28:21;92809.66;;;7.32;89.89
53041;BME280;39326;42.650;23.248;2023-05-10T08:30:47;92808.72;;;7.21;90.07
53041;BME280;39326;42.650;23.248;2023-05-10T08:33:13;92818.59;;;7.24;89.21
53041;BME280;39326;42.650;23.248;2023-05-10T08:35:39;92809.47;;;7.22;89.68
53041;BME280;39326;42.650;23.248;2023-05-10T08:38:05;92813.53;;;7.16;89.71
53041;BME280;39326;42.650;23.248;2023-05-10T08:40:31;92815.25;;;7.27;89.56
53041;BME280;39326;42.650;23.248;2023-05-10T08:43:05;92816.38;;;7.26;89.76
53041;BME280;39326;42.650;23.248;2023-05-10T08:45:33;92817.09;;;7.50;89.04
53041;BME280;39326;42.650;23.248;2023-05-10T08:48:01;92814.97;;;7.59;89.49
53041;BME280;39326;42.650;23.248;2023-05-10T08:50:28;92804.97;;;7.75;89.43
53041;BME280;39326;42.650;23.248;2023-05-10T08:52:58;92805.63;;;7.95;88.73
53041;BME280;39326;42.650;23.248;2023-05-10T08:55:24;92798.31;;;8.15;89.77
53041;BME280;39326;42.650;23.248;2023-05-10T08:57:51;92806.94;;;8.38;88.95
53041;BME280;39326;42.650;23.248;2023-05-10T09:00:18;92804.84;;;8.51;87.67
53041;BME280;39326;42.650;23.248;2023-05-10T09:02:45;92805.94;;;8.50;86.57
53041;BME280;39326;42.650;23.248;2023-05-10T09:05:12;92804.03;;;8.51;86.06
53041;BME280;39326;42.650;23.248;2023-05-10T09:07:38;92810.69;;;8.37;87.53
53041;BME280;39326;42.650;23.248;2023-05-10T09:10:04;92795.50;;;8.34;86.95
53041;BME280;39326;42.650;23.248;2023-05-10T09:12:31;92811.22;;;8.46;87.25
53041;BME280;39326;42.650;23.248;2023-05-10T09:15:00;92804.91;;;8.58;86.14
53041;BME280;39326;42.650;23.248;2023-05-10T09:17:27;92806.94;;;8.38;86.26
53041;BME280;39326;42.650;23.248;2023-05-10T09:20:04;92811.22;;;8.46;85.44
53041;BME280;39326;42.650;23.248;2023-05-10T09:22:32;92799.63;;;8.62;85.51
53041;BME280;39326;42.650;23.248;2023-05-10T09:25:13;92803.56;;;8.75;85.11
53041;BME280;39326;42.650;23.248;2023-05-10T09:27:39;92809.22;;;8.70;87.51
53041;BME280;39326;42.650;23.248;2023-05-10T09:30:07;92801.06;;;8.93;85.96
53041;BME280;39326;42.650;23.248;2023-05-10T09:32:45;92806.13;;;9.02;85.99
53041;BME280;39326;42.650;23.248;2023-05-10T09:35:17;92808.28;;;8.89;84.44
53041;BME280;39326;42.650;23.248;2023-05-10T09:37:45;92800.25;;;8.85;85.39
53041;BME280;39326;42.650;23.248;2023-05-10T09:40:14;92793.53;;;8.95;84.72
53041;BME280;39326;42.650;23.248;2023-05-10T09:42:42;92793.16;;;8.96;83.73
53041;BME280;39326;42.650;23.248;2023-05-10T09:45:16;92807.31;;;9.08;83.15
53041;BME280;39326;42.650;23.248;2023-05-10T09:47:42;92797.38;;;9.05;83.13
53041;BME280;39326;42.650;23.248;2023-05-10T09:50:09;92799.25;;;9.00;82.36
53041;BME280;39326;42.650;23.248;2023-05-10T09:52:55;92797.66;;;8.92;83.00
53041;BME280;39326;42.650;23.248;2023-05-10T09:58:03;92790.97;;;9.09;84.08
53041;BME280;39326;42.650;23.248;2023-05-10T10:00:41;92790.19;;;9.05;81.66
53041;BME280;39326;42.650;23.248;2023-05-10T10:03:13;92788.91;;;8.92;81.09
53041;BME280;39326;42.650;23.248;2023-05-10T10:05:40;92782.09;;;8.94;82.14
53041;BME280;39326;42.650;23.248;2023-05-10T10:08:08;92777.25;;;9.07;82.49
53041;BME280;39326;42.650;23.248;2023-05-10T10:10:33;92782.94;;;9.02;80.82
53041;BME280;39326;42.650;23.248;2023-05-10T10:13:00;92783.38;;;9.11;81.18
53041;BME280;39326;42.650;23.248;2023-05-10T10:15:26;92776.91;;;9.09;80.10
53041;BME280;39326;42.650;23.248;2023-05-10T10:17:52;92786.03;;;9.08;80.73
53041;BME280;39326;42.650;23.248;2023-05-10T10:20:20;92782.78;;;8.88;79.31
53041;BME280;39326;42.650;23.248;2023-05-10T10:22:46;92784.63;;;8.80;79.53
53041;BME280;39326;42.650;23.248;2023-05-10T10:25:14;92773.34;;;8.94;79.51
53041;BME280;39326;42.650;23.248;2023-05-10T10:35:35;92789.41;;;9.05;79.74
53041;BME280;39326;42.650;23.248;2023-05-10T10:38:02;92783.88;;;9.20;78.74
53041;BME280;39326;42.650;23.248;2023-05-10T10:40:32;92782.56;;;9.04;79.32
53041;BME280;39326;42.650;23.248;2023-05-10T10:43:20;92786.69;;;8.97;79.44
53041;BME280;39326;42.650;23.248;2023-05-10T10:46:09;92790.69;;;8.81;79.42
53041;BME280;39326;42.650;23.248;2023-05-10T10:48:35;92789.28;;;8.90;80.45
53041;BME280;39326;42.650;23.248;2023-05-10T10:51:01;92793.34;;;8.81;80.99
53041;BME280;39326;42.650;23.248;2023-05-10T10:53:28;92788.91;;;8.55;79.58
53041;BME280;39326;42.650;23.248;2023-05-10T10:56:11;92789.66;;;8.52;80.52
53041;BME280;39326;42.650;23.248;2023-05-10T10:58:39;92790.09;;;8.57;80.13
53041;BME280;39326;42.650;23.248;2023-05-10T11:01:16;92786.88;;;8.78;79.20
53041;BME280;39326;42.650;23.248;2023-05-10T11:04:17;92797.25;;;8.90;79.29
53041;BME280;39326;42.650;23.248;2023-05-10T11:06:43;92792.28;;;8.85;80.21
53041;BME280;39326;42.650;23.248;2023-05-10T11:09:11;92787.78;;;8.93;79.94
53041;BME280;39326;42.650;23.248;2023-05-10T11:11:53;92788.88;;;8.88;79.93
53041;BME280;39326;42.650;23.248;2023-05-10T11:14:23;92788.19;;;8.95;79.68
53041;BME280;39326;42.650;23.248;2023-05-10T11:16:49;92792.38;;;8.96;79.31
53041;BME280;39326;42.650;23.248;2023-05-10T11:19:16;92783.44;;;9.15;79.29
53041;BME280;39326;42.650;23.248;2023-05-10T11:22:12;92783.06;;;9.16;79.83
53041;BME280;39326;42.650;23.248;2023-05-10T11:24:56;92786.63;;;8.90;77.20
53041;BME280;39326;42.650;23.248;2023-05-10T11:27:21;92785.56;;;8.98;78.49
53041;BME280;39326;42.650;23.248;2023-05-10T11:29:51;92789.38;;;9.01;78.93
53041;BME280;39326;42.650;23.248;2023-05-10T11:32:17;92791.19;;;8.93;79.38
53041;BME280;39326;42.650;23.248;2023-05-10T11:34:47;92785.88;;;8.90;79.83
53041;BME280;39326;42.650;23.248;2023-05-10T11:37:13;92792.38;;;8.96;79.12
53041;BME280;39326;42.650;23.248;2023-05-10T11:39:38;92791.34;;;9.08;78.29
53041;BME280;39326;42.650;23.248;2023-05-10T11:42:04;92793.84;;;8.90;79.58
53041;BME280;39326;42.650;23.248;2023-05-10T11:44:32;92784.75;;;8.94;79.13
53041;BME280;39326;42.650;23.248;2023-05-10T11:46:59;92781.31;;;8.94;79.48
53041;BME280;39326;42.650;23.248;2023-05-10T11:49:25;92781.88;;;9.10;79.19
53041;BME280;39326;42.650;23.248;2023-05-10T11:51:51;92782.63;;;9.11;79.25
53041;BME280;39326;42.650;23.248;2023-05-10T11:54:16;92774.25;;;9.09;79.07
53041;BME280;39326;42.650;23.248;2023-05-10T11:56:42;92781.91;;;9.14;78.14
53041;BME280;39326;42.650;23.248;2023-05-10T11:59:07;92777.69;;;9.09;78.03
53041;BME280;39326;42.650;23.248;2023-05-10T12:01:33;92784.41;;;9.40;77.18
53041;BME280;39326;42.650;23.248;2023-05-10T12:03:59;92782.88;;;9.43;77.66
53041;BME280;39326;42.650;23.248;2023-05-10T12:06:30;92771.78;;;9.34;77.91
53041;BME280;39326;42.650;23.248;2023-05-10T12:08:56;92775.59;;;9.33;77.99
53041;BME280;39326;42.650;23.248;2023-05-10T12:11:25;92771.91;;;9.48;77.11
53041;BME280;39326;42.650;23.248;2023-05-10T12:13:50;92766.06;;;9.32;77.63
53041;BME280;39326;42.650;23.248;2023-05-10T12:16:18;92763.22;;;9.62;77.59
53041;BME280;39326;42.650;23.248;2023-05-10T12:18:45;92770.13;;;9.70;77.00
53041;BME280;39326;42.650;23.248;2023-05-10T12:21:11;92763.19;;;9.54;76.74
53041;BME280;39326;42.650;23.248;2023-05-10T12:23:41;92762.81;;;9.52;77.73
53041;BME280;39326;42.650;23.248;2023-05-10T12:26:09;92769.28;;;9.51;77.61
53041;BME280;39326;42.650;23.248;2023-05-10T12:28:35;92763.50;;;9.42;77.39
53041;BME280;39326;42.650;23.248;2023-05-10T12:31:02;92760.38;;;9.33;77.83
53041;BME280;39326;42.650;23.248;2023-05-10T12:33:35;92758.53;;;9.41;78.31
53041;BME280;39326;42.650;23.248;2023-05-10T12:36:02;92758.63;;;9.51;78.54
53041;BME280;39326;42.650;23.248;2023-05-10T12:38:46;92749.91;;;9.58;77.08
53041;BME280;39326;42.650;23.248;2023-05-10T12:41:18;92749.03;;;9.40;77.24
53041;BME280;39326;42.650;23.248;2023-05-10T12:43:44;92753.97;;;9.45;77.85
53041;BME280;39326;42.650;23.248;2023-05-10T12:46:12;92759.72;;;9.47;78.95
53041;BME280;39326;42.650;23.248;2023-05-10T12:48:39;92753.97;;;9.45;78.09
53041;BME280;39326;42.650;23.248;2023-05-10T12:51:05;92757.44;;;9.45;77.73
53041;BME280;39326;42.650;23.248;2023-05-10T12:53:35;92753.28;;;9.51;78.15
53041;BME280;39326;42.650;23.248;2023-05-10T12:56:00;92755.16;;;9.51;77.04
53041;BME280;39326;42.650;23.248;2023-05-10T12:58:26;92742.66;;;9.51;77.26
53041;BME280;39326;42.650;23.248;2023-05-10T13:00:52;92744.16;;;9.52;77.40
53041;BME280;39326;42.650;23.248;2023-05-10T13:03:18;92750.63;;;9.51;76.32
53041;BME280;39326;42.650;23.248;2023-05-10T13:05:43;92745.25;;;9.44;77.57
53041;BME280;39326;42.650;23.248;2023-05-10T13:08:09;92743.31;;;9.41;77.76
53041;BME280;39326;42.650;23.248;2023-05-10T13:10:34;92730.81;;;9.45;77.54
53041;BME280;39326;42.650;23.248;2023-05-10T13:13:00;92741.00;;;9.33;77.26
53041;BME280;39326;42.650;23.248;2023-05-10T13:15:26;92745.22;;;9.41;76.57
53041;BME280;39326;42.650;23.248;2023-05-10T13:17:52;92728.56;;;9.51;76.67
53041;BME280;39326;42.650;23.248;2023-05-10T13:20:18;92727.06;;;9.57;77.00
53041;BME280;39326;42.650;23.248;2023-05-10T13:22:44;92724.81;;;9.59;77.02
53041;BME280;39326;42.650;23.248;2023-05-10T13:25:10;92714.88;;;9.52;77.10
53041;BME280;39326;42.650;23.248;2023-05-10T13:27:37;92710.28;;;9.49;77.13